Claunch, New Mexico
Current Conditions -  °F | °C
As of 8:55 PM on Tuesday 25 Nov 2014 (Local Time) from KONM Reporting Station
Clear Clear  
Wind Chill: 36°   Ceiling: Unl
Heat Index: 36°   Visibility: 10mi
Dew Point:   Wind: 0mph
Humidity: 24%   Direction: NA
Pressure: 30.28"   Gusts: NA
Location:  34.14°N, 106°W
Report Text: KONM 260355Z AUTO 00000KT 10SM CLR 02/M17 A3028 RMK AO2 T00221168
Loading
Personal Weather Stations






























Interactive Weather Map New forecast layout! Learn more

10-Day Weather Forecast

Advertisements
Track Severe Weather on mobile